SWR4145 LSGG-LSZH
Flight info
| Callsign | SWR4145 |
|---|---|
| Flight time | 0h 34m |
| Altitude | FL200 |
| Route | SOSA1R SOSAL N871 BERSU BERS2G |
| Aircraft | A321/M-SDE3FGHIRWY/LB1 |
Departure
| Time | 2026-05-06 10:07 |
|---|---|
| Airport | Geneva International Airport (LSGG) |
Arrival
| Time | 2026-05-06 10:41 |
|---|---|
| Airport | Zürich Airport (LSZH) |
| Time | Latitude | Longitude | Altitude | Speed | Heading |
|---|---|---|---|---|---|
| 2026-05-06 09:34 | 46.23329 | 6.10962 | 1401 ft | 0 kts | 135° |
| 2026-05-06 09:56 | 46.23336 | 6.10952 | 1393 ft | 3 kts | 144° |
| 2026-05-06 09:56 | 46.23356 | 6.10934 | 1404 ft | 3 kts | 140° |
| 2026-05-06 09:56 | 46.23371 | 6.10914 | 1404 ft | 3 kts | 117° |
| 2026-05-06 09:57 | 46.23375 | 6.10885 | 1404 ft | 3 kts | 69° |
| 2026-05-06 09:57 | 46.23363 | 6.10857 | 1401 ft | 3 kts | 47° |
| 2026-05-06 09:57 | 46.23347 | 6.10833 | 1404 ft | 3 kts | 45° |
| 2026-05-06 09:57 | 46.23340 | 6.10822 | 1403 ft | 0 kts | 45° |
| 2026-05-06 10:00 | 46.23350 | 6.10838 | 1404 ft | 10 kts | 45° |
| 2026-05-06 10:00 | 46.23432 | 6.10957 | 1399 ft | 17 kts | 45° |
| 2026-05-06 10:00 | 46.23503 | 6.11062 | 1401 ft | 12 kts | 45° |
| 2026-05-06 10:00 | 46.23552 | 6.11132 | 1402 ft | 8 kts | 45° |
| 2026-05-06 10:01 | 46.23591 | 6.11152 | 1395 ft | 5 kts | 352° |
| 2026-05-06 10:01 | 46.23632 | 6.11114 | 1395 ft | 9 kts | 319° |
| 2026-05-06 10:01 | 46.23702 | 6.11092 | 1384 ft | 16 kts | 25° |
| 2026-05-06 10:01 | 46.23796 | 6.11214 | 1376 ft | 18 kts | 45° |
| 2026-05-06 10:02 | 46.23877 | 6.11334 | 1375 ft | 15 kts | 46° |
| 2026-05-06 10:02 | 46.23951 | 6.11440 | 1374 ft | 16 kts | 45° |
| 2026-05-06 10:02 | 46.24034 | 6.11563 | 1370 ft | 18 kts | 45° |
| 2026-05-06 10:02 | 46.24137 | 6.11714 | 1366 ft | 25 kts | 45° |
| 2026-05-06 10:03 | 46.24272 | 6.11912 | 1362 ft | 30 kts | 45° |
| 2026-05-06 10:03 | 46.24419 | 6.12128 | 1370 ft | 26 kts | 45° |
| 2026-05-06 10:03 | 46.24507 | 6.12259 | 1372 ft | 15 kts | 45° |
| 2026-05-06 10:03 | 46.24572 | 6.12352 | 1371 ft | 11 kts | 45° |
| 2026-05-06 10:04 | 46.24624 | 6.12425 | 1369 ft | 10 kts | 45° |
| 2026-05-06 10:04 | 46.24692 | 6.12528 | 1364 ft | 21 kts | 45° |
| 2026-05-06 10:04 | 46.24783 | 6.12647 | 1362 ft | 13 kts | 32° |
| 2026-05-06 10:04 | 46.24846 | 6.12687 | 1364 ft | 8 kts | 19° |
| 2026-05-06 10:05 | 46.24930 | 6.12723 | 1367 ft | 14 kts | 10° |
| 2026-05-06 10:05 | 46.24986 | 6.12684 | 1371 ft | 5 kts | 297° |
| 2026-05-06 10:05 | 46.24979 | 6.12630 | 1370 ft | 10 kts | 244° |
| 2026-05-06 10:05 | 46.24955 | 6.12586 | 1371 ft | 0 kts | 227° |
| 2026-05-06 10:06 | 46.24919 | 6.12529 | 1372 ft | 25 kts | 224° |
| 2026-05-06 10:06 | 46.24644 | 6.12126 | 1372 ft | 87 kts | 225° |
| 2026-05-06 10:06 | 46.24095 | 6.11320 | 1373 ft | 136 kts | 225° |
| 2026-05-06 10:07 | 46.23343 | 6.10220 | 1437 ft | 168 kts | 225° |
| 2026-05-06 10:07 | 46.22564 | 6.09100 | 2227 ft | 152 kts | 226° |
| 2026-05-06 10:07 | 46.21822 | 6.08013 | 2831 ft | 154 kts | 227° |
| 2026-05-06 10:07 | 46.21064 | 6.06896 | 3305 ft | 162 kts | 226° |
| 2026-05-06 10:08 | 46.20224 | 6.05662 | 3479 ft | 184 kts | 226° |
| 2026-05-06 10:08 | 46.19280 | 6.04269 | 3636 ft | 205 kts | 226° |
| 2026-05-06 10:08 | 46.18226 | 6.02717 | 3786 ft | 229 kts | 226° |
| 2026-05-06 10:08 | 46.17052 | 6.00996 | 4167 ft | 250 kts | 226° |
| 2026-05-06 10:09 | 46.15820 | 5.99192 | 4959 ft | 255 kts | 227° |
| 2026-05-06 10:09 | 46.14584 | 5.97348 | 5803 ft | 258 kts | 227° |
| 2026-05-06 10:09 | 46.13340 | 5.95470 | 6620 ft | 261 kts | 228° |
| 2026-05-06 10:09 | 46.12325 | 5.93309 | 7375 ft | 264 kts | 249° |
| 2026-05-06 10:10 | 46.12042 | 5.90701 | 8125 ft | 269 kts | 274° |
| 2026-05-06 10:10 | 46.12606 | 5.88116 | 8850 ft | 278 kts | 300° |
| 2026-05-06 10:10 | 46.13969 | 5.86109 | 9549 ft | 289 kts | 327° |
| 2026-05-06 10:10 | 46.15891 | 5.85220 | 10210 ft | 299 kts | 356° |
| 2026-05-06 10:11 | 46.17934 | 5.85795 | 10859 ft | 307 kts | 27° |
| 2026-05-06 10:11 | 46.19667 | 5.87682 | 11222 ft | 324 kts | 49° |
| 2026-05-06 10:11 | 46.20939 | 5.90467 | 11379 ft | 345 kts | 63° |
| 2026-05-06 10:11 | 46.22102 | 5.93610 | 11539 ft | 365 kts | 63° |
| 2026-05-06 10:12 | 46.23283 | 5.96899 | 12062 ft | 373 kts | 64° |
| 2026-05-06 10:12 | 46.24475 | 6.00247 | 12725 ft | 378 kts | 64° |
| 2026-05-06 10:12 | 46.25685 | 6.03639 | 13385 ft | 383 kts | 64° |
| 2026-05-06 10:12 | 46.26909 | 6.07067 | 14000 ft | 387 kts | 64° |
| 2026-05-06 10:13 | 46.28150 | 6.10524 | 14601 ft | 390 kts | 64° |
| 2026-05-06 10:13 | 46.29403 | 6.14004 | 15207 ft | 393 kts | 64° |
| 2026-05-06 10:13 | 46.30668 | 6.17515 | 15809 ft | 396 kts | 64° |
| 2026-05-06 10:13 | 46.31937 | 6.21046 | 16420 ft | 398 kts | 64° |
| 2026-05-06 10:14 | 46.33214 | 6.24611 | 17010 ft | 401 kts | 64° |
| 2026-05-06 10:14 | 46.34500 | 6.28204 | 17591 ft | 404 kts | 64° |
| 2026-05-06 10:14 | 46.35791 | 6.31820 | 18160 ft | 407 kts | 64° |
| 2026-05-06 10:14 | 46.37090 | 6.35463 | 18651 ft | 409 kts | 65° |
| 2026-05-06 10:15 | 46.38396 | 6.39123 | 19155 ft | 411 kts | 65° |
| 2026-05-06 10:15 | 46.39705 | 6.42797 | 19641 ft | 412 kts | 65° |
| 2026-05-06 10:15 | 46.41019 | 6.46489 | 19836 ft | 413 kts | 65° |
| 2026-05-06 10:15 | 46.42329 | 6.50177 | 19874 ft | 412 kts | 65° |
| 2026-05-06 10:16 | 46.43639 | 6.53869 | 19866 ft | 412 kts | 65° |
| 2026-05-06 10:16 | 46.44922 | 6.57488 | 19869 ft | 412 kts | 65° |
| 2026-05-06 10:16 | 46.46226 | 6.61176 | 19875 ft | 411 kts | 66° |
| 2026-05-06 10:16 | 46.47525 | 6.64858 | 19874 ft | 411 kts | 66° |
| 2026-05-06 10:17 | 46.48825 | 6.68547 | 19866 ft | 411 kts | 66° |
| 2026-05-06 10:17 | 46.50046 | 6.72010 | 19866 ft | 411 kts | 66° |
| 2026-05-06 10:17 | 46.51344 | 6.75695 | 19863 ft | 411 kts | 66° |
| 2026-05-06 10:17 | 46.52641 | 6.79382 | 19862 ft | 411 kts | 66° |
| 2026-05-06 10:18 | 46.53932 | 6.83069 | 19866 ft | 410 kts | 66° |
| 2026-05-06 10:18 | 46.55226 | 6.86748 | 19868 ft | 411 kts | 64° |
| 2026-05-06 10:18 | 46.56789 | 6.90222 | 19868 ft | 413 kts | 54° |
| 2026-05-06 10:18 | 46.58604 | 6.93462 | 19873 ft | 414 kts | 53° |
| 2026-05-06 10:19 | 46.60417 | 6.96692 | 19869 ft | 414 kts | 53° |
| 2026-05-06 10:19 | 46.62229 | 6.99934 | 19871 ft | 413 kts | 53° |
| 2026-05-06 10:19 | 46.64030 | 7.03179 | 19873 ft | 413 kts | 53° |
| 2026-05-06 10:19 | 46.65829 | 7.06436 | 19873 ft | 413 kts | 53° |
| 2026-05-06 10:20 | 46.67622 | 7.09690 | 19875 ft | 413 kts | 53° |
| 2026-05-06 10:20 | 46.69415 | 7.12951 | 19870 ft | 413 kts | 53° |
| 2026-05-06 10:20 | 46.71211 | 7.16213 | 19873 ft | 413 kts | 53° |
| 2026-05-06 10:20 | 46.73007 | 7.19471 | 19868 ft | 413 kts | 53° |
| 2026-05-06 10:21 | 46.74804 | 7.22731 | 19868 ft | 414 kts | 53° |
| 2026-05-06 10:21 | 46.76605 | 7.26000 | 19853 ft | 414 kts | 53° |
| 2026-05-06 10:21 | 46.78405 | 7.29269 | 19860 ft | 414 kts | 53° |
| 2026-05-06 10:21 | 46.80203 | 7.32544 | 19859 ft | 414 kts | 53° |
| 2026-05-06 10:22 | 46.81995 | 7.35813 | 19863 ft | 414 kts | 53° |
| 2026-05-06 10:22 | 46.83789 | 7.39091 | 19861 ft | 414 kts | 53° |
| 2026-05-06 10:22 | 46.85581 | 7.42369 | 19867 ft | 414 kts | 53° |
| 2026-05-06 10:22 | 46.87375 | 7.45656 | 19862 ft | 414 kts | 53° |
| 2026-05-06 10:23 | 46.89166 | 7.48943 | 19863 ft | 414 kts | 53° |
| 2026-05-06 10:23 | 46.90953 | 7.52230 | 19865 ft | 414 kts | 53° |
| 2026-05-06 10:23 | 46.92741 | 7.55524 | 19862 ft | 415 kts | 53° |
| 2026-05-06 10:23 | 46.94523 | 7.58813 | 19500 ft | 411 kts | 53° |
| 2026-05-06 10:24 | 46.96283 | 7.62064 | 19016 ft | 406 kts | 53° |
| 2026-05-06 10:24 | 46.98019 | 7.65279 | 18525 ft | 401 kts | 53° |
| 2026-05-06 10:24 | 46.99734 | 7.68453 | 18055 ft | 397 kts | 53° |
| 2026-05-06 10:24 | 47.01434 | 7.71600 | 17497 ft | 394 kts | 52° |
| 2026-05-06 10:25 | 47.03123 | 7.74727 | 16975 ft | 391 kts | 52° |
| 2026-05-06 10:25 | 47.04802 | 7.77841 | 16452 ft | 389 kts | 52° |
| 2026-05-06 10:25 | 47.06442 | 7.80886 | 15937 ft | 387 kts | 52° |
| 2026-05-06 10:25 | 47.08103 | 7.83970 | 15441 ft | 385 kts | 52° |
| 2026-05-06 10:26 | 47.09751 | 7.87034 | 14930 ft | 383 kts | 52° |
| 2026-05-06 10:26 | 47.11393 | 7.90094 | 14429 ft | 382 kts | 52° |
| 2026-05-06 10:26 | 47.12998 | 7.93188 | 13876 ft | 382 kts | 56° |
| 2026-05-06 10:26 | 47.14333 | 7.96545 | 13293 ft | 382 kts | 64° |
| 2026-05-06 10:27 | 47.15447 | 8.00030 | 12670 ft | 370 kts | 65° |
| 2026-05-06 10:27 | 47.16509 | 8.03356 | 12066 ft | 351 kts | 65° |
| 2026-05-06 10:27 | 47.17522 | 8.06523 | 11498 ft | 335 kts | 66° |
| 2026-05-06 10:27 | 47.18352 | 8.09117 | 10999 ft | 324 kts | 66° |
| 2026-05-06 10:28 | 47.19289 | 8.12049 | 10442 ft | 311 kts | 66° |
| 2026-05-06 10:28 | 47.20360 | 8.14744 | 9882 ft | 302 kts | 52° |
| 2026-05-06 10:28 | 47.21790 | 8.16924 | 9302 ft | 297 kts | 39° |
| 2026-05-06 10:28 | 47.23520 | 8.18550 | 8714 ft | 295 kts | 24° |
| 2026-05-06 10:29 | 47.25266 | 8.19451 | 8560 ft | 284 kts | 12° |
| 2026-05-06 10:29 | 47.27209 | 8.19822 | 8425 ft | 282 kts | 359° |
| 2026-05-06 10:29 | 47.29150 | 8.19570 | 8156 ft | 278 kts | 346° |
| 2026-05-06 10:29 | 47.30972 | 8.18697 | 8088 ft | 276 kts | 333° |
| 2026-05-06 10:30 | 47.32664 | 8.17446 | 8034 ft | 277 kts | 331° |
| 2026-05-06 10:30 | 47.34402 | 8.16151 | 7968 ft | 277 kts | 332° |
| 2026-05-06 10:30 | 47.36117 | 8.14877 | 7906 ft | 276 kts | 332° |
| 2026-05-06 10:30 | 47.37829 | 8.13603 | 7836 ft | 276 kts | 331° |
| 2026-05-06 10:31 | 47.39537 | 8.12327 | 7780 ft | 276 kts | 331° |
| 2026-05-06 10:31 | 47.41244 | 8.11050 | 7712 ft | 276 kts | 332° |
| 2026-05-06 10:31 | 47.42951 | 8.09773 | 7650 ft | 275 kts | 331° |
| 2026-05-06 10:31 | 47.44651 | 8.08498 | 7593 ft | 275 kts | 331° |
| 2026-05-06 10:32 | 47.46354 | 8.07227 | 7529 ft | 275 kts | 333° |
| 2026-05-06 10:32 | 47.48190 | 8.06527 | 7460 ft | 276 kts | 358° |
| 2026-05-06 10:32 | 47.50061 | 8.07055 | 7401 ft | 277 kts | 25° |
| 2026-05-06 10:32 | 47.51600 | 8.08711 | 7342 ft | 275 kts | 51° |
| 2026-05-06 10:33 | 47.52543 | 8.11120 | 7280 ft | 268 kts | 69° |
| 2026-05-06 10:33 | 47.53236 | 8.13594 | 7211 ft | 255 kts | 69° |
| 2026-05-06 10:33 | 47.53977 | 8.15958 | 7153 ft | 254 kts | 57° |
| 2026-05-06 10:33 | 47.55200 | 8.17811 | 7094 ft | 254 kts | 33° |
| 2026-05-06 10:34 | 47.56818 | 8.18786 | 7042 ft | 253 kts | 8° |
| 2026-05-06 10:34 | 47.58559 | 8.18739 | 6989 ft | 251 kts | 345° |
| 2026-05-06 10:34 | 47.60151 | 8.17736 | 6931 ft | 250 kts | 328° |
| 2026-05-06 10:34 | 47.61770 | 8.16855 | 6874 ft | 251 kts | 358° |
| 2026-05-06 10:35 | 47.63447 | 8.17414 | 6818 ft | 251 kts | 28° |
| 2026-05-06 10:35 | 47.64813 | 8.18990 | 6764 ft | 251 kts | 50° |
| 2026-05-06 10:35 | 47.65961 | 8.20935 | 6714 ft | 251 kts | 49° |
| 2026-05-06 10:35 | 47.66996 | 8.22999 | 6653 ft | 249 kts | 68° |
| 2026-05-06 10:36 | 47.67312 | 8.25468 | 6589 ft | 245 kts | 97° |
| 2026-05-06 10:36 | 47.66815 | 8.27834 | 6355 ft | 240 kts | 126° |
| 2026-05-06 10:36 | 47.65704 | 8.29610 | 6070 ft | 234 kts | 139° |
| 2026-05-06 10:36 | 47.64509 | 8.31238 | 5759 ft | 234 kts | 139° |
| 2026-05-06 10:37 | 47.63318 | 8.32870 | 5439 ft | 234 kts | 139° |
| 2026-05-06 10:37 | 47.62129 | 8.34507 | 5130 ft | 234 kts | 139° |
| 2026-05-06 10:37 | 47.60940 | 8.36145 | 4819 ft | 234 kts | 138° |
| 2026-05-06 10:37 | 47.59749 | 8.37783 | 4509 ft | 235 kts | 138° |
| 2026-05-06 10:38 | 47.58554 | 8.39427 | 4217 ft | 233 kts | 139° |
| 2026-05-06 10:38 | 47.57369 | 8.41055 | 3862 ft | 232 kts | 139° |
| 2026-05-06 10:38 | 47.56197 | 8.42664 | 3555 ft | 228 kts | 138° |
| 2026-05-06 10:38 | 47.55077 | 8.44202 | 3274 ft | 211 kts | 139° |
| 2026-05-06 10:39 | 47.54052 | 8.45610 | 3024 ft | 191 kts | 138° |
| 2026-05-06 10:39 | 47.53124 | 8.46880 | 2758 ft | 175 kts | 139° |
| 2026-05-06 10:39 | 47.52248 | 8.48079 | 2524 ft | 170 kts | 139° |
| 2026-05-06 10:39 | 47.51404 | 8.49235 | 2310 ft | 160 kts | 138° |
| 2026-05-06 10:40 | 47.50600 | 8.50334 | 2091 ft | 156 kts | 137° |
| 2026-05-06 10:40 | 47.49806 | 8.51420 | 1874 ft | 155 kts | 137° |
| 2026-05-06 10:40 | 47.49014 | 8.52503 | 1682 ft | 156 kts | 136° |
| 2026-05-06 10:40 | 47.48219 | 8.53591 | 1466 ft | 156 kts | 136° |
| 2026-05-06 10:41 | 47.47461 | 8.54627 | 1393 ft | 133 kts | 137° |
| 2026-05-06 10:41 | 47.46976 | 8.55292 | 1389 ft | 36 kts | 136° |
| 2026-05-06 10:41 | 47.46854 | 8.55463 | 1399 ft | 21 kts | 136° |
| 2026-05-06 10:41 | 47.46748 | 8.55590 | 1396 ft | 18 kts | 146° |
| 2026-05-06 10:42 | 47.46640 | 8.55663 | 1397 ft | 16 kts | 164° |
| 2026-05-06 10:42 | 47.46520 | 8.55707 | 1400 ft | 25 kts | 165° |
| 2026-05-06 10:42 | 47.46388 | 8.55767 | 1403 ft | 15 kts | 152° |
| 2026-05-06 10:42 | 47.46302 | 8.55869 | 1410 ft | 14 kts | 136° |
| 2026-05-06 10:43 | 47.46217 | 8.55976 | 1408 ft | 8 kts | 151° |
| 2026-05-06 10:43 | 47.46142 | 8.55997 | 1409 ft | 18 kts | 182° |
| 2026-05-06 10:43 | 47.46017 | 8.55979 | 1406 ft | 18 kts | 185° |
| 2026-05-06 10:44 | 47.45815 | 8.55892 | 1413 ft | 13 kts | 198° |
| 2026-05-06 10:44 | 47.45704 | 8.55867 | 1412 ft | 18 kts | 184° |
| 2026-05-06 10:44 | 47.45645 | 8.55798 | 1409 ft | 6 kts | 274° |
| 2026-05-06 10:44 | 47.45652 | 8.55660 | 1405 ft | 26 kts | 276° |
| 2026-05-06 10:45 | 47.45671 | 8.55412 | 1401 ft | 17 kts | 276° |
| 2026-05-06 10:45 | 47.45677 | 8.55254 | 1405 ft | 14 kts | 253° |
| 2026-05-06 10:45 | 47.45619 | 8.55228 | 1405 ft | 5 kts | 144° |
| 2026-05-06 10:45 | 47.45597 | 8.55263 | 1403 ft | 17 kts | 134° |
| 2026-05-06 10:46 | 47.45519 | 8.55388 | 1406 ft | 14 kts | 134° |
| 2026-05-06 10:46 | 47.45437 | 8.55466 | 1408 ft | 22 kts | 154° |
| 2026-05-06 10:46 | 47.45286 | 8.55580 | 1406 ft | 16 kts | 136° |
| 2026-05-06 10:46 | 47.45265 | 8.55693 | 1407 ft | 12 kts | 97° |
| 2026-05-06 10:47 | 47.45256 | 8.55849 | 1411 ft | 14 kts | 95° |
| 2026-05-06 10:47 | 47.45241 | 8.55896 | 1413 ft | 3 kts | 154° |
| 2026-05-06 10:47 | 47.45215 | 8.55902 | 1412 ft | 6 kts | 178° |
| 2026-05-06 10:47 | 47.45179 | 8.55899 | 1410 ft | 4 kts | 184° |
| 2026-05-06 10:48 | 47.45167 | 8.55898 | 1410 ft | 0 kts | 185° |